Time;durP1;ratioP1;P1;durP2;ratioP2;P2;SDS_P1;SDS_P2;PMS_P1;PMS_P2;Temp;Humidity;BMP_temperature;BMP_pressure;BME280_temperature;BME280_humidity;BME280_pressure;Samples;Min_cycle;Max_cycle;Signal;HPM_P1;HPM_P2
2023/01/11 00:01:56;;;;;;;3.42;1.60;;;;;;;;;;5033608;28;20195;-68
2023/01/11 00:04:28;;;;;;;2.00;1.63;;;;;;;;;;5033597;28;20201;-69
2023/01/11 00:06:56;;;;;;;2.45;1.70;;;;;;;;;;5033351;28;20239;-68
2023/01/11 00:09:23;;;;;;;1.88;1.75;;;;;;;;;;5033357;28;20561;-69
2023/01/11 00:11:52;;;;;;;1.55;1.45;;;;;;;;;;5033780;28;20242;-68
2023/01/11 00:14:19;;;;;;;2.03;1.73;;;;;;;;;;5033777;28;20196;-68
2023/01/11 00:16:46;;;;;;;2.05;1.67;;;;;;;;;;5033566;28;20199;-68
2023/01/11 00:19:13;;;;;;;1.70;1.60;;;;;;;;;;5033377;28;20206;-68
2023/01/11 00:21:40;;;;;;;3.33;1.70;;;;;;;;;;5033478;28;20446;-68
2023/01/11 00:24:08;;;;;;;1.53;1.43;;;;;;;;;;5033755;28;20785;-68
2023/01/11 00:26:35;;;;;;;1.43;1.33;;;;;;;;;;5033457;28;20484;-68
2023/01/11 00:29:03;;;;;;;1.57;1.47;;;;;;;;;;5033344;28;20449;-68
2023/01/11 00:31:30;;;;;;;2.20;1.80;;;;;;;;;;5033104;28;20456;-68
2023/01/11 00:33:58;;;;;;;3.07;1.80;;;;;;;;;;5032948;28;20450;-68
2023/01/11 00:36:25;;;;;;;4.00;1.30;;;;;;;;;;5033645;28;20853;-68
2023/01/11 00:38:54;;;;;;;1.60;1.50;;;;;;;;;;5036830;28;20441;-69
2023/01/11 00:49:47;;;;;;;1.60;1.50;;;;;;;;;;5001266;28;20509;-68
2023/01/11 00:52:14;;;;;;;1.40;1.30;;;;;;;;;;5037461;28;20518;-69
2023/01/11 00:54:42;;;;;;;1.70;1.30;;;;;;;;;;5036777;28;20439;-69
2023/01/11 00:57:09;;;;;;;1.33;1.23;;;;;;;;;;5036870;28;20530;-69
2023/01/11 00:59:39;;;;;;;1.38;1.27;;;;;;;;;;5054267;28;20442;-69
2023/01/11 01:02:07;;;;;;;1.67;1.40;;;;;;;;;;5057163;28;20206;-69
2023/01/11 01:04:34;;;;;;;1.60;1.50;;;;;;;;;;5056457;28;20960;-69
2023/01/11 01:07:01;;;;;;;1.30;1.20;;;;;;;;;;5056460;28;20464;-69
2023/01/11 01:09:28;;;;;;;1.63;1.53;;;;;;;;;;5056702;28;20444;-69
2023/01/11 01:11:56;;;;;;;1.47;1.30;;;;;;;;;;5056411;28;20444;-68
2023/01/11 01:14:25;;;;;;;1.57;1.47;;;;;;;;;;5056272;28;20445;-69
2023/01/11 01:16:53;;;;;;;1.20;1.13;;;;;;;;;;5057181;28;20461;-68
2023/01/11 01:19:21;;;;;;;2.07;1.60;;;;;;;;;;5056568;28;20442;-68
2023/01/11 01:21:48;;;;;;;3.27;1.40;;;;;;;;;;5056851;28;20441;-68
2023/01/11 01:24:15;;;;;;;1.37;1.27;;;;;;;;;;5056504;28;20445;-67
2023/01/11 01:26:43;;;;;;;2.00;1.37;;;;;;;;;;5056375;28;20496;-67
2023/01/11 01:29:10;;;;;;;3.07;1.40;;;;;;;;;;5056444;28;20437;-67
2023/01/11 01:31:37;;;;;;;3.13;1.20;;;;;;;;;;5056397;28;20453;-67
2023/01/11 01:34:07;;;;;;;2.40;2.20;;;;;;;;;;5056371;28;20437;-68
2023/01/11 01:36:34;;;;;;;2.30;1.30;;;;;;;;;;5056557;28;20295;-68
2023/01/11 01:39:01;;;;;;;2.42;1.48;;;;;;;;;;5056148;28;20437;-68
2023/01/11 01:41:29;;;;;;;1.47;1.20;;;;;;;;;;5056287;28;20195;-67
2023/01/11 01:43:57;;;;;;;2.43;1.13;;;;;;;;;;5055885;28;20445;-68
2023/01/11 01:46:27;;;;;;;1.00;1.00;;;;;;;;;;5056200;28;20477;-68
2023/01/11 01:48:57;;;;;;;2.27;1.30;;;;;;;;;;5055463;28;20452;-68
2023/01/11 01:51:27;;;;;;;1.37;1.27;;;;;;;;;;5055686;28;20449;-67
2023/01/11 01:53:56;;;;;;;1.33;1.23;;;;;;;;;;5056140;28;20434;-67
2023/01/11 01:56:26;;;;;;;1.47;1.10;;;;;;;;;;5055583;28;20458;-67
2023/01/11 01:58:54;;;;;;;1.00;1.00;;;;;;;;;;5056063;28;20510;-67
2023/01/11 02:04:09;;;;;;;1.93;1.40;;;;;;;;;;5055844;28;20401;-67
2023/01/11 02:06:38;;;;;;;1.23;1.13;;;;;;;;;;5055295;28;20485;-67
2023/01/11 02:09:08;;;;;;;1.47;1.20;;;;;;;;;;5055307;28;21371;-67
2023/01/11 02:11:42;;;;;;;1.43;1.33;;;;;;;;;;5055100;28;20470;-68
2023/01/11 02:14:10;;;;;;;1.20;1.03;;;;;;;;;;5055771;28;20437;-67
2023/01/11 02:16:38;;;;;;;1.30;1.20;;;;;;;;;;5055144;28;20445;-67
2023/01/11 02:19:05;;;;;;;1.83;1.13;;;;;;;;;;5055874;28;20445;-68
2023/01/11 02:21:39;;;;;;;1.00;1.00;;;;;;;;;;5055406;28;20453;-67
2023/01/11 02:24:21;;;;;;;1.20;1.10;;;;;;;;;;5055614;28;20438;-67
2023/01/11 02:27:01;;;;;;;1.57;1.10;;;;;;;;;;5052586;28;20982;-67
2023/01/11 02:29:37;;;;;;;1.63;1.00;;;;;;;;;;5055686;28;20743;-67
2023/01/11 02:32:11;;;;;;;1.77;1.20;;;;;;;;;;5055436;28;20427;-67
2023/01/11 02:34:42;;;;;;;1.97;1.13;;;;;;;;;;5055124;28;20961;-67
2023/01/11 02:37:14;;;;;;;1.30;1.20;;;;;;;;;;5055376;28;20442;-67
2023/01/11 02:39:45;;;;;;;1.20;1.10;;;;;;;;;;5055204;28;20915;-67
2023/01/11 02:45:05;;;;;;;0.97;0.97;;;;;;;;;;5055420;28;20418;-67
2023/01/11 02:47:38;;;;;;;1.30;1.20;;;;;;;;;;5054937;28;20469;-67
2023/01/11 02:50:10;;;;;;;1.40;1.30;;;;;;;;;;5055509;28;20439;-67
2023/01/11 02:52:39;;;;;;;1.20;1.10;;;;;;;;;;5055054;28;20859;-67
2023/01/11 02:55:08;;;;;;;1.10;1.10;;;;;;;;;;5055184;28;20446;-67
2023/01/11 02:57:38;;;;;;;1.00;1.00;;;;;;;;;;5054435;28;20453;-67
2023/01/11 03:00:08;;;;;;;1.07;1.07;;;;;;;;;;5054414;28;20532;-67
2023/01/11 03:02:35;;;;;;;1.27;1.10;;;;;;;;;;5055094;28;20426;-67
2023/01/11 03:05:03;;;;;;;1.83;1.20;;;;;;;;;;5055251;28;20444;-67
2023/01/11 03:07:39;;;;;;;1.53;1.40;;;;;;;;;;5054136;28;20563;-67
2023/01/11 03:10:11;;;;;;;1.10;1.00;;;;;;;;;;5055119;28;20473;-67
2023/01/11 03:12:54;;;;;;;1.88;1.10;;;;;;;;;;5054881;28;20785;-67
2023/01/11 03:15:38;;;;;;;1.57;1.30;;;;;;;;;;5054192;28;20198;-67
2023/01/11 03:18:11;;;;;;;1.23;1.13;;;;;;;;;;5054631;28;20443;-67
2023/01/11 03:20:40;;;;;;;2.50;1.13;;;;;;;;;;5054100;28;20437;-67
2023/01/11 03:23:12;;;;;;;1.60;1.37;;;;;;;;;;5054257;28;20439;-67
2023/01/11 03:25:43;;;;;;;1.07;1.07;;;;;;;;;;5054715;28;20422;-67
2023/01/11 03:28:16;;;;;;;4.53;1.40;;;;;;;;;;5053758;28;20469;-67
2023/01/11 03:30:48;;;;;;;1.67;1.57;;;;;;;;;;5054254;28;20465;-67
2023/01/11 03:33:18;;;;;;;1.50;1.40;;;;;;;;;;5053648;28;20438;-66
2023/01/11 03:35:48;;;;;;;1.73;1.30;;;;;;;;;;5054445;28;20429;-66
2023/01/11 03:38:18;;;;;;;1.10;1.10;;;;;;;;;;5053962;28;20449;-66
2023/01/11 03:40:47;;;;;;;1.57;1.47;;;;;;;;;;5054563;28;20469;-67
2023/01/11 03:43:15;;;;;;;1.65;1.55;;;;;;;;;;5053916;28;20446;-66
2023/01/11 03:45:50;;;;;;;4.83;1.40;;;;;;;;;;5053658;28;20249;-67
2023/01/11 03:48:20;;;;;;;1.73;1.60;;;;;;;;;;5053451;28;20497;-66
2023/01/11 03:50:48;;;;;;;2.33;1.50;;;;;;;;;;5054099;28;20436;-66
2023/01/11 03:53:18;;;;;;;1.50;1.40;;;;;;;;;;5053848;28;20437;-66
2023/01/11 03:55:46;;;;;;;1.43;1.33;;;;;;;;;;5053766;28;20442;-66
2023/01/11 03:58:13;;;;;;;2.17;1.50;;;;;;;;;;5053859;28;20449;-67
2023/01/11 04:00:40;;;;;;;1.40;1.30;;;;;;;;;;5053650;28;20201;-67
2023/01/11 04:03:11;;;;;;;1.50;1.40;;;;;;;;;;5053264;28;20515;-67
2023/01/11 04:05:39;;;;;;;1.30;1.20;;;;;;;;;;5054021;28;20842;-66
2023/01/11 04:08:06;;;;;;;2.73;1.50;;;;;;;;;;5053386;28;20477;-67
2023/01/11 04:10:33;;;;;;;1.77;1.67;;;;;;;;;;5053268;28;20476;-67
2023/01/11 04:13:00;;;;;;;1.57;1.47;;;;;;;;;;5052713;28;20448;-67
2023/01/11 04:15:30;;;;;;;2.57;1.63;;;;;;;;;;5053415;28;20441;-67
2023/01/11 04:18:03;;;;;;;1.70;1.60;;;;;;;;;;5053572;28;20478;-67
2023/01/11 04:20:32;;;;;;;1.60;1.50;;;;;;;;;;5054043;28;20443;-67
2023/01/11 04:22:59;;;;;;;1.73;1.60;;;;;;;;;;5053306;28;20434;-67
2023/01/11 04:25:27;;;;;;;1.40;1.30;;;;;;;;;;5053384;28;20776;-67
2023/01/11 04:27:55;;;;;;;1.60;1.50;;;;;;;;;;5053408;28;20487;-67
2023/01/11 04:30:22;;;;;;;1.67;1.53;;;;;;;;;;5052991;28;20668;-67
2023/01/11 04:32:49;;;;;;;1.60;1.50;;;;;;;;;;5053176;28;20446;-67
2023/01/11 04:35:16;;;;;;;2.43;1.80;;;;;;;;;;5054119;28;20448;-67
2023/01/11 04:37:45;;;;;;;1.90;1.60;;;;;;;;;;5053154;28;20445;-67
2023/01/11 04:40:12;;;;;;;2.33;1.70;;;;;;;;;;5053410;28;20846;-67
2023/01/11 04:42:39;;;;;;;1.70;1.60;;;;;;;;;;5052833;28;20439;-67
2023/01/11 04:45:06;;;;;;;1.80;1.70;;;;;;;;;;5053228;28;20437;-67
2023/01/11 04:47:34;;;;;;;4.53;1.90;;;;;;;;;;5052978;28;20469;-66
2023/01/11 04:50:01;;;;;;;1.60;1.50;;;;;;;;;;5053140;28;20464;-67
2023/01/11 04:52:28;;;;;;;3.17;1.67;;;;;;;;;;5053052;28;20464;-67
2023/01/11 04:54:56;;;;;;;1.77;1.67;;;;;;;;;;5052811;28;20200;-67
2023/01/11 04:57:24;;;;;;;1.53;1.43;;;;;;;;;;5052964;28;20457;-67
2023/01/11 04:59:51;;;;;;;1.60;1.50;;;;;;;;;;5035084;28;20533;-67
2023/01/11 05:02:19;;;;;;;1.93;1.83;;;;;;;;;;5033249;28;20592;-68
2023/01/11 05:04:46;;;;;;;2.33;1.57;;;;;;;;;;5033124;28;20798;-67
2023/01/11 05:07:13;;;;;;;1.70;1.60;;;;;;;;;;5032994;28;20470;-67
2023/01/11 05:09:40;;;;;;;1.70;1.60;;;;;;;;;;5032742;28;20451;-67
2023/01/11 05:12:09;;;;;;;2.33;1.53;;;;;;;;;;5033061;28;20449;-67
2023/01/11 05:14:36;;;;;;;1.70;1.60;;;;;;;;;;5032730;28;20443;-66
2023/01/11 05:17:03;;;;;;;1.53;1.43;;;;;;;;;;5032640;28;20454;-67
2023/01/11 05:19:30;;;;;;;1.87;1.60;;;;;;;;;;5032642;28;20442;-67
2023/01/11 05:21:58;;;;;;;1.87;1.77;;;;;;;;;;5033134;28;20946;-67
2023/01/11 05:24:25;;;;;;;1.90;1.80;;;;;;;;;;5035270;28;20446;-67
2023/01/11 05:26:52;;;;;;;1.77;1.67;;;;;;;;;;5036324;28;20484;-66
2023/01/11 05:29:21;;;;;;;1.50;1.40;;;;;;;;;;5036612;28;20450;-67
2023/01/11 05:31:48;;;;;;;2.55;2.00;;;;;;;;;;5036549;28;20442;-66
2023/01/11 05:34:16;;;;;;;2.03;1.83;;;;;;;;;;5035344;28;20196;-67
2023/01/11 05:36:43;;;;;;;2.40;2.20;;;;;;;;;;5035890;28;20553;-67
2023/01/11 05:39:11;;;;;;;2.63;2.43;;;;;;;;;;5036131;28;20449;-67
2023/01/11 05:41:39;;;;;;;2.40;2.30;;;;;;;;;;5036199;28;20443;-67
2023/01/11 05:46:53;;;;;;;2.83;2.37;;;;;;;;;;5036320;28;20457;-67
2023/01/11 05:49:20;;;;;;;2.37;2.17;;;;;;;;;;5035758;28;20450;-66
2023/01/11 05:51:47;;;;;;;2.70;2.50;;;;;;;;;;5036269;28;20442;-67
2023/01/11 05:54:15;;;;;;;2.70;2.50;;;;;;;;;;5036341;28;20449;-66
2023/01/11 05:56:43;;;;;;;2.40;2.30;;;;;;;;;;5035870;28;20542;-66
2023/01/11 05:59:10;;;;;;;2.50;2.30;;;;;;;;;;5035598;28;20489;-67
2023/01/11 06:01:37;;;;;;;3.43;3.13;;;;;;;;;;5035903;28;20435;-66
2023/01/11 06:04:07;;;;;;;2.90;2.70;;;;;;;;;;5033612;28;20530;-68
2023/01/11 06:06:34;;;;;;;2.80;2.60;;;;;;;;;;5034361;28;20516;-64
2023/01/11 06:09:01;;;;;;;2.93;2.73;;;;;;;;;;5035529;28;20478;-65
2023/01/11 06:11:29;;;;;;;6.53;3.13;;;;;;;;;;5035737;28;20541;-65
2023/01/11 06:13:56;;;;;;;3.30;2.90;;;;;;;;;;5035212;28;20446;-65
2023/01/11 06:16:23;;;;;;;3.50;3.20;;;;;;;;;;5035651;28;21014;-65
2023/01/11 06:18:51;;;;;;;3.53;3.23;;;;;;;;;;5035940;28;20457;-65
2023/01/11 06:21:26;;;;;;;3.83;3.53;;;;;;;;;;5035532;28;20924;-65
2023/01/11 06:23:54;;;;;;;2.80;2.60;;;;;;;;;;5035709;28;20728;-65
2023/01/11 06:26:22;;;;;;;3.10;2.80;;;;;;;;;;5035515;28;20574;-65
2023/01/11 06:28:49;;;;;;;3.70;3.50;;;;;;;;;;5035249;28;20470;-65
2023/01/11 06:31:17;;;;;;;3.80;3.50;;;;;;;;;;5035585;28;20470;-65
2023/01/11 06:33:44;;;;;;;5.00;4.50;;;;;;;;;;5035407;28;20446;-66
2023/01/11 06:36:12;;;;;;;4.30;4.00;;;;;;;;;;5034202;28;20438;-66
2023/01/11 06:38:41;;;;;;;3.97;3.67;;;;;;;;;;5035507;28;20453;-66
2023/01/11 06:41:08;;;;;;;4.07;3.77;;;;;;;;;;5036274;28;20453;-66
2023/01/11 06:43:36;;;;;;;5.80;3.90;;;;;;;;;;5034912;28;20442;-66
2023/01/11 06:46:03;;;;;;;4.80;4.40;;;;;;;;;;5035285;28;20434;-66
2023/01/11 06:48:30;;;;;;;4.53;4.13;;;;;;;;;;5034926;28;20481;-66
2023/01/11 06:50:58;;;;;;;4.30;3.90;;;;;;;;;;5034910;28;20451;-66
2023/01/11 06:53:26;;;;;;;5.53;4.67;;;;;;;;;;5035767;28;20453;-66
2023/01/11 06:55:55;;;;;;;5.10;4.60;;;;;;;;;;5034958;28;20450;-66
2023/01/11 06:58:23;;;;;;;6.03;5.53;;;;;;;;;;5034906;28;21004;-66
2023/01/11 07:00:51;;;;;;;5.03;4.63;;;;;;;;;;5034764;28;20525;-66
2023/01/11 07:03:19;;;;;;;6.13;5.57;;;;;;;;;;5034785;28;20191;-67
2023/01/11 07:05:47;;;;;;;6.17;5.53;;;;;;;;;;5034574;28;20470;-66
2023/01/11 07:08:14;;;;;;;7.47;5.87;;;;;;;;;;5034333;28;20517;-66
2023/01/11 07:10:42;;;;;;;7.20;6.20;;;;;;;;;;5034374;28;20477;-67
2023/01/11 07:13:11;;;;;;;6.87;6.20;;;;;;;;;;5034778;28;20462;-66
2023/01/11 07:15:38;;;;;;;8.80;6.50;;;;;;;;;;5034438;28;20527;-66
2023/01/11 07:18:06;;;;;;;7.17;6.57;;;;;;;;;;5034751;28;20545;-66
2023/01/11 07:20:33;;;;;;;8.17;7.43;;;;;;;;;;5034310;28;20490;-66
2023/01/11 07:23:01;;;;;;;7.03;6.43;;;;;;;;;;5034297;28;20443;-66
2023/01/11 07:25:28;;;;;;;10.10;6.83;;;;;;;;;;5034258;28;20460;-66
2023/01/11 07:27:59;;;;;;;7.87;7.07;;;;;;;;;;5034286;28;20505;-66
2023/01/11 07:30:28;;;;;;;8.43;7.63;;;;;;;;;;5034058;28;20447;-66
2023/01/11 07:32:55;;;;;;;8.87;8.03;;;;;;;;;;5034736;28;20443;-66
2023/01/11 07:35:23;;;;;;;10.00;8.07;;;;;;;;;;5033715;28;20453;-66
2023/01/11 07:37:50;;;;;;;7.57;6.80;;;;;;;;;;5034093;28;20533;-66
2023/01/11 07:40:17;;;;;;;8.60;7.80;;;;;;;;;;5034226;28;20450;-66
2023/01/11 07:45:35;;;;;;;8.80;7.90;;;;;;;;;;5033789;28;20433;-66
2023/01/11 07:48:03;;;;;;;9.40;8.40;;;;;;;;;;5034559;28;20483;-66
2023/01/11 07:50:30;;;;;;;8.20;7.40;;;;;;;;;;5033479;28;20929;-65
2023/01/11 07:52:57;;;;;;;7.90;7.10;;;;;;;;;;5033823;28;20439;-65
2023/01/11 07:55:25;;;;;;;9.73;8.83;;;;;;;;;;5033395;28;20445;-65
2023/01/11 07:57:52;;;;;;;8.30;7.50;;;;;;;;;;5033997;28;20497;-65
2023/01/11 08:00:20;;;;;;;8.93;8.07;;;;;;;;;;5033323;28;20449;-66
2023/01/11 08:02:51;;;;;;;10.00;9.00;;;;;;;;;;5033721;28;20435;-65
2023/01/11 08:05:19;;;;;;;9.03;8.20;;;;;;;;;;5033731;28;20428;-65
2023/01/11 08:07:46;;;;;;;8.83;8.03;;;;;;;;;;5033571;28;20484;-65
2023/01/11 08:10:13;;;;;;;11.83;9.50;;;;;;;;;;5032949;28;20505;-66
2023/01/11 08:15:29;;;;;;;10.57;9.57;;;;;;;;;;5033536;28;20766;-66
2023/01/11 08:17:58;;;;;;;10.60;9.70;;;;;;;;;;5033231;28;20540;-66
2023/01/11 08:20:27;;;;;;;12.93;11.77;;;;;;;;;;5033040;28;20458;-66
2023/01/11 08:22:55;;;;;;;10.50;9.40;;;;;;;;;;5033222;28;20984;-66
2023/01/11 08:25:23;;;;;;;9.97;9.07;;;;;;;;;;5033697;28;20444;-67
2023/01/11 08:27:50;;;;;;;12.50;10.10;;;;;;;;;;5033332;28;20482;-66
2023/01/11 08:30:17;;;;;;;10.50;9.50;;;;;;;;;;5033313;28;20545;-66
2023/01/11 08:32:45;;;;;;;9.00;8.10;;;;;;;;;;5033285;28;20907;-65
2023/01/11 08:35:13;;;;;;;9.77;8.80;;;;;;;;;;5033256;28;20482;-66
2023/01/11 08:37:40;;;;;;;11.60;10.50;;;;;;;;;;5032972;28;20450;-66
2023/01/11 08:40:08;;;;;;;10.33;9.30;;;;;;;;;;5033264;28;20445;-66
2023/01/11 08:42:35;;;;;;;11.90;10.00;;;;;;;;;;5032833;28;20988;-66
2023/01/11 08:45:03;;;;;;;13.97;10.07;;;;;;;;;;5034005;28;20443;-66
2023/01/11 08:47:30;;;;;;;11.53;10.33;;;;;;;;;;5032770;28;20442;-66
2023/01/11 08:49:57;;;;;;;11.70;10.50;;;;;;;;;;5033106;28;20515;-66
2023/01/11 08:52:26;;;;;;;12.37;11.07;;;;;;;;;;5033006;28;20443;-66
2023/01/11 08:54:53;;;;;;;13.13;11.83;;;;;;;;;;5033502;28;20453;-65
2023/01/11 08:57:21;;;;;;;14.30;13.00;;;;;;;;;;5033047;28;20520;-65
2023/01/11 08:59:48;;;;;;;11.97;10.77;;;;;;;;;;5036473;28;20453;-65
2023/01/11 09:02:15;;;;;;;13.07;11.10;;;;;;;;;;5036306;28;20446;-65
2023/01/11 09:04:43;;;;;;;14.50;11.50;;;;;;;;;;5036936;28;20529;-65
2023/01/11 09:07:10;;;;;;;14.30;10.57;;;;;;;;;;5036694;28;20800;-66
2023/01/11 09:09:38;;;;;;;12.73;11.03;;;;;;;;;;5036678;28;20846;-66
2023/01/11 09:12:06;;;;;;;13.23;11.50;;;;;;;;;;5036208;28;20430;-66
2023/01/11 09:14:33;;;;;;;16.80;10.57;;;;;;;;;;5036693;28;20441;-65
2023/01/11 09:17:00;;;;;;;16.10;11.57;;;;;;;;;;5036616;28;20540;-66
2023/01/11 09:19:27;;;;;;;12.40;10.40;;;;;;;;;;5036597;28;20934;-65
2023/01/11 09:21:59;;;;;;;13.17;11.33;;;;;;;;;;5036519;28;20442;-66
2023/01/11 09:24:26;;;;;;;17.57;12.00;;;;;;;;;;5037268;28;20455;-65
2023/01/11 09:26:55;;;;;;;14.53;10.50;;;;;;;;;;5036282;28;20443;-65
2023/01/11 09:29:22;;;;;;;13.37;9.70;;;;;;;;;;5036051;28;20569;-66
2023/01/11 09:31:50;;;;;;;16.37;10.13;;;;;;;;;;5036229;28;20746;-66
2023/01/11 09:34:18;;;;;;;11.83;9.20;;;;;;;;;;5036594;28;20440;-66
2023/01/11 09:36:47;;;;;;;13.20;9.37;;;;;;;;;;5035894;28;20643;-66
2023/01/11 09:39:17;;;;;;;11.00;7.10;;;;;;;;;;5035886;28;20456;-66
2023/01/11 09:42:00;;;;;;;18.50;8.43;;;;;;;;;;5036905;28;20460;-66
2023/01/11 09:44:29;;;;;;;12.67;9.17;;;;;;;;;;5034889;28;20481;-66
2023/01/11 09:47:00;;;;;;;18.33;7.90;;;;;;;;;;5035731;28;20440;-66
2023/01/11 09:49:29;;;;;;;18.80;8.50;;;;;;;;;;5036677;28;20464;-66
2023/01/11 09:52:03;;;;;;;25.17;10.00;;;;;;;;;;5036299;28;20450;-66
2023/01/11 09:54:32;;;;;;;19.07;10.87;;;;;;;;;;5036205;28;20427;-66
2023/01/11 09:57:06;;;;;;;19.03;8.80;;;;;;;;;;5035666;28;20452;-66
2023/01/11 09:59:41;;;;;;;15.93;7.37;;;;;;;;;;5036567;28;20446;-66
2023/01/11 10:02:10;;;;;;;20.67;8.93;;;;;;;;;;5035675;28;20917;-66
2023/01/11 10:04:44;;;;;;;27.53;9.27;;;;;;;;;;5035945;28;20450;-65
2023/01/11 10:07:30;;;;;;;20.63;9.87;;;;;;;;;;5035475;28;20424;-66
2023/01/11 10:10:04;;;;;;;23.30;10.87;;;;;;;;;;5034219;28;21019;-66
2023/01/11 10:12:35;;;;;;;29.83;8.60;;;;;;;;;;5036131;28;20519;-66
2023/01/11 10:15:11;;;;;;;19.70;9.27;;;;;;;;;;5035645;28;20440;-66
2023/01/11 10:17:43;;;;;;;22.13;8.47;;;;;;;;;;5035372;28;20433;-67
2023/01/11 10:20:15;;;;;;;18.87;7.77;;;;;;;;;;5035475;28;20530;-66
2023/01/11 10:22:46;;;;;;;17.27;7.43;;;;;;;;;;5035652;28;20432;-64
2023/01/11 10:25:19;;;;;;;20.33;8.00;;;;;;;;;;5035298;28;20434;-65
2023/01/11 10:27:54;;;;;;;17.60;8.67;;;;;;;;;;5035259;28;20942;-65
2023/01/11 10:30:40;;;;;;;26.03;8.23;;;;;;;;;;5035439;28;20471;-65
2023/01/11 10:33:17;;;;;;;21.60;7.07;;;;;;;;;;5035639;28;20805;-65
2023/01/11 10:36:01;;;;;;;28.50;8.23;;;;;;;;;;5035137;28;20423;-65
2023/01/11 10:38:42;;;;;;;14.93;6.97;;;;;;;;;;5035282;28;20430;-64
2023/01/11 10:41:19;;;;;;;15.83;6.40;;;;;;;;;;5035026;28;20430;-65
2023/01/11 10:43:48;;;;;;;13.67;6.10;;;;;;;;;;5034723;28;20442;-66
2023/01/11 10:46:18;;;;;;;17.27;7.33;;;;;;;;;;5034659;28;20452;-65
2023/01/11 10:48:46;;;;;;;22.07;7.03;;;;;;;;;;5034981;28;20476;-65
2023/01/11 10:51:26;;;;;;;14.97;6.50;;;;;;;;;;5034766;28;20485;-65
2023/01/11 10:54:01;;;;;;;15.40;5.70;;;;;;;;;;5034992;28;20439;-65
2023/01/11 10:56:35;;;;;;;10.80;5.00;;;;;;;;;;5034675;28;20521;-65
2023/01/11 10:59:08;;;;;;;10.90;5.03;;;;;;;;;;5034577;28;20434;-65
2023/01/11 11:01:49;;;;;;;21.43;6.53;;;;;;;;;;5034713;28;20437;-65
2023/01/11 11:04:25;;;;;;;13.97;6.03;;;;;;;;;;5034849;28;20439;-65
2023/01/11 11:06:57;;;;;;;8.17;4.27;;;;;;;;;;5035204;28;20935;-65
2023/01/11 11:09:28;;;;;;;14.33;4.83;;;;;;;;;;5034752;28;20487;-65
2023/01/11 11:11:58;;;;;;;15.60;6.23;;;;;;;;;;5034264;28;20543;-64
2023/01/11 11:14:28;;;;;;;19.77;5.30;;;;;;;;;;5034519;28;20442;-65
2023/01/11 11:17:02;;;;;;;14.83;5.07;;;;;;;;;;5034481;28;20439;-64
2023/01/11 11:19:31;;;;;;;10.60;4.70;;;;;;;;;;5034780;28;20435;-64
2023/01/11 11:21:59;;;;;;;11.10;5.00;;;;;;;;;;5033845;28;20448;-65
2023/01/11 11:24:31;;;;;;;13.03;4.90;;;;;;;;;;5034223;28;20452;-64
2023/01/11 11:27:02;;;;;;;14.47;4.97;;;;;;;;;;5034826;28;20921;-64
2023/01/11 11:29:30;;;;;;;8.93;4.30;;;;;;;;;;5033866;28;20464;-65
2023/01/11 11:32:00;;;;;;;14.27;6.83;;;;;;;;;;5034008;28;20470;-64
2023/01/11 11:34:29;;;;;;;12.57;5.53;;;;;;;;;;5033961;28;20472;-64
2023/01/11 11:36:59;;;;;;;16.20;5.40;;;;;;;;;;5033913;28;20478;-64
2023/01/11 11:39:27;;;;;;;11.47;4.90;;;;;;;;;;5033914;28;20451;-64
2023/01/11 11:41:56;;;;;;;19.93;5.50;;;;;;;;;;5034511;28;20444;-64
2023/01/11 11:44:24;;;;;;;12.03;5.53;;;;;;;;;;5033790;28;21015;-64
2023/01/11 11:47:00;;;;;;;15.20;5.27;;;;;;;;;;5034049;28;20464;-64
2023/01/11 11:49:28;;;;;;;18.30;4.80;;;;;;;;;;5033805;28;20488;-64
2023/01/11 11:51:55;;;;;;;14.60;4.30;;;;;;;;;;5033864;28;20929;-64
2023/01/11 11:54:25;;;;;;;16.47;4.70;;;;;;;;;;5033808;28;20486;-65
2023/01/11 11:56:52;;;;;;;11.33;3.90;;;;;;;;;;5033884;28;20442;-64
2023/01/11 11:59:20;;;;;;;11.23;2.90;;;;;;;;;;5033673;28;20479;-64
2023/01/11 12:01:49;;;;;;;16.40;3.90;;;;;;;;;;5033794;28;20510;-65
2023/01/11 12:04:19;;;;;;;14.70;4.70;;;;;;;;;;5033633;28;20535;-65
2023/01/11 12:06:47;;;;;;;18.40;6.03;;;;;;;;;;5033680;28;20449;-65
2023/01/11 12:09:20;;;;;;;8.97;3.40;;;;;;;;;;5033600;28;20496;-65
2023/01/11 12:11:48;;;;;;;10.70;3.77;;;;;;;;;;5033723;28;20479;-65
2023/01/11 12:14:17;;;;;;;7.63;3.53;;;;;;;;;;5033200;28;20532;-65
2023/01/11 12:16:45;;;;;;;10.27;4.00;;;;;;;;;;5033933;28;20441;-64
2023/01/11 12:19:30;;;;;;;13.60;5.23;;;;;;;;;;5033155;28;20458;-65
2023/01/11 12:22:16;;;;;;;7.87;3.57;;;;;;;;;;5033786;28;20950;-65
2023/01/11 12:24:43;;;;;;;12.30;3.50;;;;;;;;;;5033461;28;20434;-65
2023/01/11 12:27:15;;;;;;;9.87;4.60;;;;;;;;;;5033029;28;20456;-64
2023/01/11 12:29:50;;;;;;;11.40;4.20;;;;;;;;;;5033525;28;20468;-65
2023/01/11 12:32:35;;;;;;;14.10;5.60;;;;;;;;;;5033328;28;20435;-65
2023/01/11 12:35:11;;;;;;;11.63;5.57;;;;;;;;;;5032790;28;20445;-65
2023/01/11 12:37:46;;;;;;;9.30;3.63;;;;;;;;;;5033294;28;20522;-66
2023/01/11 12:40:17;;;;;;;10.60;3.43;;;;;;;;;;5033136;28;20446;-65
2023/01/11 12:42:54;;;;;;;9.57;4.40;;;;;;;;;;5033528;28;20518;-65
2023/01/11 12:45:28;;;;;;;6.33;3.60;;;;;;;;;;5033239;28;20447;-65
2023/01/11 12:48:08;;;;;;;13.30;3.93;;;;;;;;;;5033470;28;20776;-65
2023/01/11 12:50:42;;;;;;;13.27;4.13;;;;;;;;;;5032787;28;20976;-64
2023/01/11 12:53:23;;;;;;;15.03;3.77;;;;;;;;;;5033338;28;20430;-65
2023/01/11 12:55:59;;;;;;;9.47;2.97;;;;;;;;;;5033195;28;20442;-65
2023/01/11 12:58:32;;;;;;;13.53;3.07;;;;;;;;;;5033192;28;20430;-65
2023/01/11 13:01:07;;;;;;;8.20;2.50;;;;;;;;;;5033107;28;20436;-65
2023/01/11 13:03:57;;;;;;;7.97;2.80;;;;;;;;;;5033142;28;20431;-65
2023/01/11 13:06:30;;;;;;;5.90;2.53;;;;;;;;;;5033187;28;20435;-65
2023/01/11 13:09:00;;;;;;;13.67;3.20;;;;;;;;;;5033759;28;20431;-65
2023/01/11 13:11:35;;;;;;;7.17;2.40;;;;;;;;;;5032982;28;20475;-65
2023/01/11 13:14:11;;;;;;;9.50;2.70;;;;;;;;;;5032653;28;20438;-65
2023/01/11 13:16:41;;;;;;;8.73;2.70;;;;;;;;;;5033379;28;20440;-65
2023/01/11 13:19:11;;;;;;;13.03;2.60;;;;;;;;;;5033510;28;20523;-65
2023/01/11 13:21:43;;;;;;;11.17;3.20;;;;;;;;;;5033375;28;20543;-65
2023/01/11 13:24:13;;;;;;;11.17;4.97;;;;;;;;;;5033628;28;20444;-65
2023/01/11 13:26:41;;;;;;;9.27;3.80;;;;;;;;;;5033160;28;20455;-65
2023/01/11 13:29:13;;;;;;;5.10;2.60;;;;;;;;;;5032498;28;20443;-65
2023/01/11 13:31:41;;;;;;;4.07;1.53;;;;;;;;;;5033309;28;20804;-65
2023/01/11 13:34:13;;;;;;;6.20;3.17;;;;;;;;;;5032816;28;20448;-66
2023/01/11 13:36:44;;;;;;;8.50;2.60;;;;;;;;;;5033599;28;20435;-65
2023/01/11 13:39:15;;;;;;;12.97;2.63;;;;;;;;;;5033411;28;20442;-65
2023/01/11 13:41:43;;;;;;;9.27;2.93;;;;;;;;;;5033384;28;20454;-65
2023/01/11 13:44:14;;;;;;;9.43;2.53;;;;;;;;;;5033991;28;20444;-65
2023/01/11 13:46:55;;;;;;;8.13;2.30;;;;;;;;;;5036310;28;20435;-65
2023/01/11 13:49:35;;;;;;;5.17;2.77;;;;;;;;;;5036451;28;20435;-66
2023/01/11 13:52:08;;;;;;;7.43;2.50;;;;;;;;;;5035887;28;20434;-65
2023/01/11 13:54:39;;;;;;;17.13;3.30;;;;;;;;;;5036053;28;20791;-65
2023/01/11 13:57:09;;;;;;;12.50;3.03;;;;;;;;;;5036343;28;20549;-65
2023/01/11 13:59:41;;;;;;;17.00;3.40;;;;;;;;;;5036016;28;20543;-67
2023/01/11 14:02:12;;;;;;;11.23;3.53;;;;;;;;;;5036130;28;20439;-66
2023/01/11 14:04:45;;;;;;;11.80;2.83;;;;;;;;;;5036106;28;20420;-67
2023/01/11 14:07:22;;;;;;;11.30;4.13;;;;;;;;;;5036522;28;20428;-67
2023/01/11 14:09:57;;;;;;;14.10;3.30;;;;;;;;;;5035365;28;20495;-67
2023/01/11 14:12:31;;;;;;;10.27;3.37;;;;;;;;;;5036087;28;20428;-66
2023/01/11 14:15:13;;;;;;;18.93;3.00;;;;;;;;;;5035457;28;20438;-67
2023/01/11 14:17:51;;;;;;;7.60;2.80;;;;;;;;;;5039408;28;20771;-67
2023/01/11 14:20:23;;;;;;;8.00;3.13;;;;;;;;;;5049033;28;20470;-67
2023/01/11 14:22:57;;;;;;;13.17;4.00;;;;;;;;;;5035698;28;20433;-67
2023/01/11 14:25:27;;;;;;;7.73;3.17;;;;;;;;;;5035911;28;20803;-67
2023/01/11 14:28:01;;;;;;;6.10;3.10;;;;;;;;;;5035062;28;20447;-67
2023/01/11 14:30:33;;;;;;;10.57;4.10;;;;;;;;;;5035001;28;20597;-67
2023/01/11 14:33:17;;;;;;;17.87;6.13;;;;;;;;;;5035262;28;20435;-67
2023/01/11 14:36:02;;;;;;;4.70;2.77;;;;;;;;;;5035783;28;20431;-67
2023/01/11 14:38:53;;;;;;;22.00;4.47;;;;;;;;;;5028968;28;20451;-67
2023/01/11 14:41:35;;;;;;;15.10;4.50;;;;;;;;;;4996789;28;20454;-67
2023/01/11 14:44:16;;;;;;;10.10;3.73;;;;;;;;;;5035215;28;20833;-67
2023/01/11 14:46:58;;;;;;;8.70;3.93;;;;;;;;;;5034671;28;20521;-67
2023/01/11 14:49:40;;;;;;;5.37;4.13;;;;;;;;;;5034388;28;20950;-67
2023/01/11 14:52:09;;;;;;;12.43;4.60;;;;;;;;;;5034554;28;20435;-67
2023/01/11 14:54:38;;;;;;;13.53;4.27;;;;;;;;;;5034473;28;21022;-67
2023/01/11 14:57:06;;;;;;;9.57;4.17;;;;;;;;;;5033855;28;20544;-67
2023/01/11 14:59:38;;;;;;;8.97;4.47;;;;;;;;;;5034325;28;20987;-67
2023/01/11 15:02:23;;;;;;;8.10;4.20;;;;;;;;;;5034600;28;20460;-67
2023/01/11 15:05:06;;;;;;;14.37;4.37;;;;;;;;;;5027815;28;20500;-67
2023/01/11 15:07:51;;;;;;;13.20;5.60;;;;;;;;;;5034506;28;20443;-68
2023/01/11 15:10:48;;;;;;;10.77;5.80;;;;;;;;;;5034330;28;20581;-67
2023/01/11 15:13:19;;;;;;;14.20;4.83;;;;;;;;;;4992846;28;20465;-67
2023/01/11 15:18:31;;;;;;;10.53;4.50;;;;;;;;;;5034041;28;20416;-67
2023/01/11 15:21:03;;;;;;;14.73;4.80;;;;;;;;;;5034161;28;20453;-67
2023/01/11 15:23:34;;;;;;;18.03;5.03;;;;;;;;;;5034195;28;20506;-67